Time;durP1;ratioP1;P1;durP2;ratioP2;P2;SDS_P1;SDS_P2;PMS_P1;PMS_P2;Temp;Humidity;BMP_temperature;BMP_pressure;BME280_temperature;BME280_humidity;BME280_pressure;Samples;Min_cycle;Max_cycle;Signal;HPM_P1;HPM_P2
2022/01/14 22:09:02;;;;;;;36.30;18.25;;;;;;;;;;5067222;28;20460;-63
2022/01/14 22:11:28;;;;;;;39.13;18.98;;;;;;;;;;5066999;28;20040;-62
2022/01/14 22:14:05;;;;;;;38.65;19.05;;;;;;;;;;5066627;28;20024;-63
2022/01/14 22:16:31;;;;;;;40.28;21.13;;;;;;;;;;5057581;28;20463;-63
2022/01/14 22:18:57;;;;;;;41.95;21.08;;;;;;;;;;5058829;28;20112;-65
2022/01/14 22:21:23;;;;;;;41.30;20.45;;;;;;;;;;5055624;28;20075;-63
2022/01/14 22:23:50;;;;;;;41.15;21.33;;;;;;;;;;5057573;28;20400;-65
2022/01/14 22:26:16;;;;;;;36.40;20.10;;;;;;;;;;5055724;28;20017;-61
2022/01/14 22:28:42;;;;;;;32.60;19.42;;;;;;;;;;5056935;28;20082;-63
2022/01/14 22:31:09;;;;;;;35.20;19.77;;;;;;;;;;5057352;28;20027;-63
2022/01/14 22:33:35;;;;;;;36.53;19.80;;;;;;;;;;5055894;28;20025;-60
2022/01/14 22:36:02;;;;;;;33.33;18.08;;;;;;;;;;5057287;28;20067;-62
2022/01/14 22:38:29;;;;;;;33.50;18.92;;;;;;;;;;5048042;28;20080;-61
2022/01/14 22:40:55;;;;;;;36.92;19.77;;;;;;;;;;5047647;28;20033;-62
2022/01/14 22:43:21;;;;;;;34.28;18.75;;;;;;;;;;5047826;28;20532;-61
2022/01/14 22:45:50;;;;;;;34.42;18.45;;;;;;;;;;5047716;28;20037;-61
2022/01/14 22:48:16;;;;;;;36.50;18.13;;;;;;;;;;5046902;28;20033;-61
2022/01/14 22:50:43;;;;;;;30.35;17.55;;;;;;;;;;5047691;28;20071;-61
2022/01/14 22:53:09;;;;;;;34.10;18.98;;;;;;;;;;5047767;28;20021;-61
2022/01/14 22:55:35;;;;;;;33.70;18.30;;;;;;;;;;5047462;28;20032;-61
2022/01/14 22:58:02;;;;;;;34.70;18.83;;;;;;;;;;5047744;28;20029;-61
2022/01/14 23:00:28;;;;;;;34.58;19.60;;;;;;;;;;5047608;28;20025;-61
2022/01/14 23:02:55;;;;;;;35.40;18.73;;;;;;;;;;5047211;28;20029;-63
2022/01/14 23:05:21;;;;;;;38.53;19.40;;;;;;;;;;5047362;28;20028;-64
2022/01/14 23:07:48;;;;;;;35.65;20.98;;;;;;;;;;5046930;28;20053;-63
2022/01/14 23:10:16;;;;;;;35.53;19.27;;;;;;;;;;5047681;28;20091;-61
2022/01/14 23:12:42;;;;;;;38.08;20.33;;;;;;;;;;5047455;28;20026;-61
2022/01/14 23:15:09;;;;;;;39.75;20.92;;;;;;;;;;5047302;28;20051;-63
2022/01/14 23:17:35;;;;;;;36.25;19.70;;;;;;;;;;5047195;28;20029;-61
2022/01/14 23:20:02;;;;;;;36.00;18.98;;;;;;;;;;5035826;28;20034;-64
2022/01/14 23:22:28;;;;;;;35.08;19.42;;;;;;;;;;5033920;28;20021;-61
2022/01/14 23:24:54;;;;;;;37.38;20.55;;;;;;;;;;5033697;28;20037;-62
2022/01/14 23:27:20;;;;;;;37.75;19.73;;;;;;;;;;5033821;28;20116;-64
2022/01/14 23:29:46;;;;;;;38.28;19.80;;;;;;;;;;5033984;28;20025;-61
2022/01/14 23:32:12;;;;;;;36.92;20.45;;;;;;;;;;5033839;28;20493;-63
2022/01/14 23:34:38;;;;;;;35.72;20.20;;;;;;;;;;5033773;28;20401;-64
2022/01/14 23:37:05;;;;;;;38.08;19.95;;;;;;;;;;5033664;28;20103;-61
2022/01/14 23:39:31;;;;;;;38.80;20.70;;;;;;;;;;5033371;28;20025;-64
2022/01/14 23:41:58;;;;;;;33.70;19.17;;;;;;;;;;5033712;28;20021;-64
2022/01/14 23:44:41;;;;;;;33.20;18.35;;;;;;;;;;5033413;28;20496;-63
2022/01/14 23:49:52;;;;;;;33.03;17.67;;;;;;;;;;5033506;28;20401;-62
2022/01/14 23:52:21;;;;;;;29.10;17.13;;;;;;;;;;5033258;28;20017;-62
2022/01/14 23:54:47;;;;;;;28.27;16.98;;;;;;;;;;5033377;28;20424;-62
2022/01/14 23:57:14;;;;;;;32.45;17.63;;;;;;;;;;5033059;28;20521;-62
2022/01/14 23:59:40;;;;;;;34.47;18.23;;;;;;;;;;5032960;28;20061;-61
